sensor_id;sensor_type;location;lat;lon;timestamp;temperature;humidity
12704;DHT22;6416;52.182;7.650;2023-07-31T00:01:29;20.70;68.60
12704;DHT22;6416;52.182;7.650;2023-07-31T00:03:55;20.70;68.70
12704;DHT22;6416;52.182;7.650;2023-07-31T00:06:20;20.70;68.70
12704;DHT22;6416;52.182;7.650;2023-07-31T00:08:46;20.70;68.90
12704;DHT22;6416;52.182;7.650;2023-07-31T00:11:11;20.70;69.00
12704;DHT22;6416;52.182;7.650;2023-07-31T00:13:36;20.60;68.90
12704;DHT22;6416;52.182;7.650;2023-07-31T00:16:02;20.60;69.10
12704;DHT22;6416;52.182;7.650;2023-07-31T00:18:28;20.60;69.10
12704;DHT22;6416;52.182;7.650;2023-07-31T00:20:53;20.60;69.10
12704;DHT22;6416;52.182;7.650;2023-07-31T00:23:18;20.60;69.20
12704;DHT22;6416;52.182;7.650;2023-07-31T00:25:44;20.60;69.20
12704;DHT22;6416;52.182;7.650;2023-07-31T00:28:13;20.50;69.10
12704;DHT22;6416;52.182;7.650;2023-07-31T00:30:38;20.50;69.20
12704;DHT22;6416;52.182;7.650;2023-07-31T00:33:04;20.40;69.20
12704;DHT22;6416;52.182;7.650;2023-07-31T00:35:30;20.40;69.40
12704;DHT22;6416;52.182;7.650;2023-07-31T00:37:57;20.40;69.30
12704;DHT22;6416;52.182;7.650;2023-07-31T00:40:23;20.40;69.40
12704;DHT22;6416;52.182;7.650;2023-07-31T00:42:48;20.40;69.50
12704;DHT22;6416;52.182;7.650;2023-07-31T00:45:14;20.30;69.50
12704;DHT22;6416;52.182;7.650;2023-07-31T00:47:39;20.30;69.60
12704;DHT22;6416;52.182;7.650;2023-07-31T00:50:06;20.30;69.60
12704;DHT22;6416;52.182;7.650;2023-07-31T00:52:32;20.30;69.80
12704;DHT22;6416;52.182;7.650;2023-07-31T00:54:57;20.20;69.80
12704;DHT22;6416;52.182;7.650;2023-07-31T00:57:23;20.20;69.90
12704;DHT22;6416;52.182;7.650;2023-07-31T00:59:49;20.20;69.90
12704;DHT22;6416;52.182;7.650;2023-07-31T01:02:14;20.20;70.00
12704;DHT22;6416;52.182;7.650;2023-07-31T01:04:42;20.20;70.00
12704;DHT22;6416;52.182;7.650;2023-07-31T01:07:12;20.20;70.00
12704;DHT22;6416;52.182;7.650;2023-07-31T01:09:57;20.20;69.90
12704;DHT22;6416;52.182;7.650;2023-07-31T01:12:27;20.20;70.40
12704;DHT22;6416;52.182;7.650;2023-07-31T01:17:28;20.10;70.40
12704;DHT22;6416;52.182;7.650;2023-07-31T01:19:56;20.10;70.00
12704;DHT22;6416;52.182;7.650;2023-07-31T01:25:45;20.10;70.40
12704;DHT22;6416;52.182;7.650;2023-07-31T01:28:14;20.10;70.50
12704;DHT22;6416;52.182;7.650;2023-07-31T01:30:47;20.00;69.90
12704;DHT22;6416;52.182;7.650;2023-07-31T01:33:15;20.00;70.00
12704;DHT22;6416;52.182;7.650;2023-07-31T01:35:46;20.00;70.00
12704;DHT22;6416;52.182;7.650;2023-07-31T01:38:13;19.90;70.20
12704;DHT22;6416;52.182;7.650;2023-07-31T01:40:41;19.90;70.20
12704;DHT22;6416;52.182;7.650;2023-07-31T01:43:07;19.90;71.30
12704;DHT22;6416;52.182;7.650;2023-07-31T01:45:32;19.80;70.50
12704;DHT22;6416;52.182;7.650;2023-07-31T01:47:58;19.80;70.60
12704;DHT22;6416;52.182;7.650;2023-07-31T01:50:23;19.80;70.70
12704;DHT22;6416;52.182;7.650;2023-07-31T01:52:49;19.80;70.80
12704;DHT22;6416;52.182;7.650;2023-07-31T01:55:14;19.70;70.90
12704;DHT22;6416;52.182;7.650;2023-07-31T01:57:40;19.70;71.00
12704;DHT22;6416;52.182;7.650;2023-07-31T02:00:06;19.70;71.10
12704;DHT22;6416;52.182;7.650;2023-07-31T02:02:31;19.70;71.20
12704;DHT22;6416;52.182;7.650;2023-07-31T02:04:57;19.70;71.40
12704;DHT22;6416;52.182;7.650;2023-07-31T02:07:22;19.70;71.50
12704;DHT22;6416;52.182;7.650;2023-07-31T02:09:48;19.70;71.60
12704;DHT22;6416;52.182;7.650;2023-07-31T02:12:13;19.70;71.70
12704;DHT22;6416;52.182;7.650;2023-07-31T02:14:39;19.70;71.70
12704;DHT22;6416;52.182;7.650;2023-07-31T02:17:05;19.60;71.80
12704;DHT22;6416;52.182;7.650;2023-07-31T02:19:30;19.60;71.90
12704;DHT22;6416;52.182;7.650;2023-07-31T02:21:56;19.60;72.20
12704;DHT22;6416;52.182;7.650;2023-07-31T02:24:21;19.50;72.10
12704;DHT22;6416;52.182;7.650;2023-07-31T02:26:46;19.50;72.30
12704;DHT22;6416;52.182;7.650;2023-07-31T02:29:12;19.50;72.50
12704;DHT22;6416;52.182;7.650;2023-07-31T02:31:37;19.50;72.70
12704;DHT22;6416;52.182;7.650;2023-07-31T02:34:03;19.50;72.90
12704;DHT22;6416;52.182;7.650;2023-07-31T02:36:28;19.40;72.90
12704;DHT22;6416;52.182;7.650;2023-07-31T02:38:54;19.40;73.10
12704;DHT22;6416;52.182;7.650;2023-07-31T02:41:19;19.40;73.10
12704;DHT22;6416;52.182;7.650;2023-07-31T02:43:45;19.40;73.30
12704;DHT22;6416;52.182;7.650;2023-07-31T02:46:10;19.40;73.30
12704;DHT22;6416;52.182;7.650;2023-07-31T02:48:36;19.40;73.50
12704;DHT22;6416;52.182;7.650;2023-07-31T02:51:01;19.40;73.60
12704;DHT22;6416;52.182;7.650;2023-07-31T02:53:26;19.40;73.60
12704;DHT22;6416;52.182;7.650;2023-07-31T02:55:52;19.30;73.70
12704;DHT22;6416;52.182;7.650;2023-07-31T02:58:17;19.40;73.80
12704;DHT22;6416;52.182;7.650;2023-07-31T03:00:44;19.30;73.90
12704;DHT22;6416;52.182;7.650;2023-07-31T03:03:09;19.30;74.20
12704;DHT22;6416;52.182;7.650;2023-07-31T03:05:35;19.30;74.40
12704;DHT22;6416;52.182;7.650;2023-07-31T03:08:00;19.30;74.50
12704;DHT22;6416;52.182;7.650;2023-07-31T03:10:26;19.30;74.60
12704;DHT22;6416;52.182;7.650;2023-07-31T03:12:51;19.30;74.80
12704;DHT22;6416;52.182;7.650;2023-07-31T03:15:17;19.30;75.00
12704;DHT22;6416;52.182;7.650;2023-07-31T03:17:42;19.30;75.10
12704;DHT22;6416;52.182;7.650;2023-07-31T03:20:08;19.30;75.30
12704;DHT22;6416;52.182;7.650;2023-07-31T03:22:34;19.30;75.50
12704;DHT22;6416;52.182;7.650;2023-07-31T03:24:59;19.30;75.70
12704;DHT22;6416;52.182;7.650;2023-07-31T03:27:24;19.40;75.90
12704;DHT22;6416;52.182;7.650;2023-07-31T03:29:50;19.40;76.00
12704;DHT22;6416;52.182;7.650;2023-07-31T03:32:15;19.40;76.10
12704;DHT22;6416;52.182;7.650;2023-07-31T03:34:41;19.40;76.20
12704;DHT22;6416;52.182;7.650;2023-07-31T03:37:06;19.40;76.20
12704;DHT22;6416;52.182;7.650;2023-07-31T03:39:32;19.40;76.30
12704;DHT22;6416;52.182;7.650;2023-07-31T03:41:57;19.50;76.50
12704;DHT22;6416;52.182;7.650;2023-07-31T03:44:23;19.50;76.60
12704;DHT22;6416;52.182;7.650;2023-07-31T03:46:48;19.50;76.60
12704;DHT22;6416;52.182;7.650;2023-07-31T03:49:14;19.50;76.80
12704;DHT22;6416;52.182;7.650;2023-07-31T03:51:39;19.60;76.90
12704;DHT22;6416;52.182;7.650;2023-07-31T03:54:05;19.60;76.90
12704;DHT22;6416;52.182;7.650;2023-07-31T03:56:30;19.60;76.90
12704;DHT22;6416;52.182;7.650;2023-07-31T03:58:56;19.60;77.00
12704;DHT22;6416;52.182;7.650;2023-07-31T04:01:21;19.60;77.00
12704;DHT22;6416;52.182;7.650;2023-07-31T04:03:47;19.60;77.10
12704;DHT22;6416;52.182;7.650;2023-07-31T04:06:12;19.50;76.90
12704;DHT22;6416;52.182;7.650;2023-07-31T04:08:40;19.70;77.30
12704;DHT22;6416;52.182;7.650;2023-07-31T04:11:06;19.70;77.30
12704;DHT22;6416;52.182;7.650;2023-07-31T04:13:31;19.70;77.40
12704;DHT22;6416;52.182;7.650;2023-07-31T04:15:57;19.70;77.50
12704;DHT22;6416;52.182;7.650;2023-07-31T04:18:24;19.70;77.50
12704;DHT22;6416;52.182;7.650;2023-07-31T04:20:50;19.70;77.60
12704;DHT22;6416;52.182;7.650;2023-07-31T04:23:15;19.70;77.50
12704;DHT22;6416;52.182;7.650;2023-07-31T04:25:41;19.60;77.50
12704;DHT22;6416;52.182;7.650;2023-07-31T04:28:06;19.60;77.60
12704;DHT22;6416;52.182;7.650;2023-07-31T04:30:32;19.60;77.50
12704;DHT22;6416;52.182;7.650;2023-07-31T04:32:57;19.60;77.70
12704;DHT22;6416;52.182;7.650;2023-07-31T04:35:23;19.60;77.70
12704;DHT22;6416;52.182;7.650;2023-07-31T04:37:48;19.60;77.80
12704;DHT22;6416;52.182;7.650;2023-07-31T04:40:15;19.60;77.90
12704;DHT22;6416;52.182;7.650;2023-07-31T04:42:40;19.60;77.80
12704;DHT22;6416;52.182;7.650;2023-07-31T04:45:07;19.60;77.90
12704;DHT22;6416;52.182;7.650;2023-07-31T04:47:32;19.60;78.00
12704;DHT22;6416;52.182;7.650;2023-07-31T04:49:58;19.50;77.90
12704;DHT22;6416;52.182;7.650;2023-07-31T04:52:23;19.60;78.00
12704;DHT22;6416;52.182;7.650;2023-07-31T04:54:49;19.60;77.90
12704;DHT22;6416;52.182;7.650;2023-07-31T04:57:14;19.60;77.90
12704;DHT22;6416;52.182;7.650;2023-07-31T04:59:40;19.50;77.90
12704;DHT22;6416;52.182;7.650;2023-07-31T05:02:06;19.60;78.10
12704;DHT22;6416;52.182;7.650;2023-07-31T05:04:32;19.50;78.00
12704;DHT22;6416;52.182;7.650;2023-07-31T05:06:57;19.50;77.90
12704;DHT22;6416;52.182;7.650;2023-07-31T05:09:23;19.60;78.00
12704;DHT22;6416;52.182;7.650;2023-07-31T05:11:48;19.50;77.90
12704;DHT22;6416;52.182;7.650;2023-07-31T05:14:14;19.50;77.90
12704;DHT22;6416;52.182;7.650;2023-07-31T05:16:39;19.60;78.00
12704;DHT22;6416;52.182;7.650;2023-07-31T05:19:05;19.50;77.90
12704;DHT22;6416;52.182;7.650;2023-07-31T05:21:30;19.60;78.00
12704;DHT22;6416;52.182;7.650;2023-07-31T05:23:56;19.60;77.90
12704;DHT22;6416;52.182;7.650;2023-07-31T05:26:21;19.60;77.90
12704;DHT22;6416;52.182;7.650;2023-07-31T05:28:47;19.60;77.80
12704;DHT22;6416;52.182;7.650;2023-07-31T05:31:12;19.50;78.00
12704;DHT22;6416;52.182;7.650;2023-07-31T05:33:37;19.50;78.10
12704;DHT22;6416;52.182;7.650;2023-07-31T05:36:03;19.60;78.30
12704;DHT22;6416;52.182;7.650;2023-07-31T05:38:29;19.60;78.20
12704;DHT22;6416;52.182;7.650;2023-07-31T05:40:54;19.60;78.30
12704;DHT22;6416;52.182;7.650;2023-07-31T05:43:19;19.60;78.30
12704;DHT22;6416;52.182;7.650;2023-07-31T05:45:45;19.60;78.20
12704;DHT22;6416;52.182;7.650;2023-07-31T05:48:10;19.70;78.20
12704;DHT22;6416;52.182;7.650;2023-07-31T05:50:36;19.70;78.20
12704;DHT22;6416;52.182;7.650;2023-07-31T05:53:01;19.70;78.10
12704;DHT22;6416;52.182;7.650;2023-07-31T05:55:27;19.70;78.10
12704;DHT22;6416;52.182;7.650;2023-07-31T05:57:54;19.70;78.00
12704;DHT22;6416;52.182;7.650;2023-07-31T06:00:20;19.70;77.90
12704;DHT22;6416;52.182;7.650;2023-07-31T06:02:45;19.70;77.90
12704;DHT22;6416;52.182;7.650;2023-07-31T06:05:10;19.70;77.90
12704;DHT22;6416;52.182;7.650;2023-07-31T06:07:36;19.70;77.90
12704;DHT22;6416;52.182;7.650;2023-07-31T06:10:02;19.80;77.90
12704;DHT22;6416;52.182;7.650;2023-07-31T06:12:27;19.80;78.00
12704;DHT22;6416;52.182;7.650;2023-07-31T06:14:53;19.80;78.00
12704;DHT22;6416;52.182;7.650;2023-07-31T06:17:18;19.80;78.00
12704;DHT22;6416;52.182;7.650;2023-07-31T06:19:44;19.80;78.20
12704;DHT22;6416;52.182;7.650;2023-07-31T06:22:09;19.80;78.40
12704;DHT22;6416;52.182;7.650;2023-07-31T06:24:35;19.80;78.40
12704;DHT22;6416;52.182;7.650;2023-07-31T06:27:00;19.90;78.50
12704;DHT22;6416;52.182;7.650;2023-07-31T06:29:25;19.90;78.50
12704;DHT22;6416;52.182;7.650;2023-07-31T06:31:51;19.90;78.50
12704;DHT22;6416;52.182;7.650;2023-07-31T06:34:17;19.90;78.60
12704;DHT22;6416;52.182;7.650;2023-07-31T06:36:42;20.00;78.70
12704;DHT22;6416;52.182;7.650;2023-07-31T06:39:07;20.00;78.70
12704;DHT22;6416;52.182;7.650;2023-07-31T06:41:33;20.00;78.60
12704;DHT22;6416;52.182;7.650;2023-07-31T06:43:58;20.10;78.70
12704;DHT22;6416;52.182;7.650;2023-07-31T06:46:24;20.10;78.70
12704;DHT22;6416;52.182;7.650;2023-07-31T06:48:49;20.10;78.60
12704;DHT22;6416;52.182;7.650;2023-07-31T06:51:15;20.20;78.70
12704;DHT22;6416;52.182;7.650;2023-07-31T06:53:40;20.20;78.60
12704;DHT22;6416;52.182;7.650;2023-07-31T06:56:06;20.20;78.60
12704;DHT22;6416;52.182;7.650;2023-07-31T06:58:31;20.30;78.70
12704;DHT22;6416;52.182;7.650;2023-07-31T07:00:57;20.30;78.70
12704;DHT22;6416;52.182;7.650;2023-07-31T07:03:22;20.30;78.60
12704;DHT22;6416;52.182;7.650;2023-07-31T07:05:47;20.30;78.50
12704;DHT22;6416;52.182;7.650;2023-07-31T07:08:13;20.30;78.40
12704;DHT22;6416;52.182;7.650;2023-07-31T07:10:38;20.30;78.40
12704;DHT22;6416;52.182;7.650;2023-07-31T07:13:04;20.30;78.30
12704;DHT22;6416;52.182;7.650;2023-07-31T07:15:29;20.30;78.30
12704;DHT22;6416;52.182;7.650;2023-07-31T07:17:55;20.30;78.30
12704;DHT22;6416;52.182;7.650;2023-07-31T07:20:20;20.30;78.40
12704;DHT22;6416;52.182;7.650;2023-07-31T07:22:46;20.30;78.40
12704;DHT22;6416;52.182;7.650;2023-07-31T07:25:11;20.30;78.50
12704;DHT22;6416;52.182;7.650;2023-07-31T07:27:37;20.30;78.50
12704;DHT22;6416;52.182;7.650;2023-07-31T07:30:02;20.20;78.50
12704;DHT22;6416;52.182;7.650;2023-07-31T07:32:28;20.20;78.50
12704;DHT22;6416;52.182;7.650;2023-07-31T07:34:55;20.20;78.60
12704;DHT22;6416;52.182;7.650;2023-07-31T07:37:20;20.20;78.80
12704;DHT22;6416;52.182;7.650;2023-07-31T07:39:46;20.10;78.80
12704;DHT22;6416;52.182;7.650;2023-07-31T07:42:11;20.10;79.10
12704;DHT22;6416;52.182;7.650;2023-07-31T07:44:37;20.10;79.30
12704;DHT22;6416;52.182;7.650;2023-07-31T07:47:02;20.10;79.40
12704;DHT22;6416;52.182;7.650;2023-07-31T07:49:28;20.10;79.50
12704;DHT22;6416;52.182;7.650;2023-07-31T07:51:53;20.10;79.70
12704;DHT22;6416;52.182;7.650;2023-07-31T07:54:19;20.10;79.90
12704;DHT22;6416;52.182;7.650;2023-07-31T07:56:44;20.10;80.20
12704;DHT22;6416;52.182;7.650;2023-07-31T07:59:10;20.10;80.30
12704;DHT22;6416;52.182;7.650;2023-07-31T08:01:35;20.20;80.40
12704;DHT22;6416;52.182;7.650;2023-07-31T08:04:01;20.20;80.40
12704;DHT22;6416;52.182;7.650;2023-07-31T08:06:26;20.20;80.60
12704;DHT22;6416;52.182;7.650;2023-07-31T08:08:52;20.20;80.70
12704;DHT22;6416;52.182;7.650;2023-07-31T08:11:17;20.20;80.90
12704;DHT22;6416;52.182;7.650;2023-07-31T08:13:42;20.30;81.10
12704;DHT22;6416;52.182;7.650;2023-07-31T08:16:08;20.30;81.20
12704;DHT22;6416;52.182;7.650;2023-07-31T08:18:33;20.30;81.20
12704;DHT22;6416;52.182;7.650;2023-07-31T08:20:59;20.40;81.30
12704;DHT22;6416;52.182;7.650;2023-07-31T08:23:24;20.40;81.30
12704;DHT22;6416;52.182;7.650;2023-07-31T08:25:50;20.40;81.30
12704;DHT22;6416;52.182;7.650;2023-07-31T08:28:16;20.40;81.30
12704;DHT22;6416;52.182;7.650;2023-07-31T08:30:42;20.40;81.40
12704;DHT22;6416;52.182;7.650;2023-07-31T08:33:07;20.50;81.60
12704;DHT22;6416;52.182;7.650;2023-07-31T08:35:33;20.50;81.70
12704;DHT22;6416;52.182;7.650;2023-07-31T08:37:58;20.50;81.90
12704;DHT22;6416;52.182;7.650;2023-07-31T08:40:24;20.50;81.90
12704;DHT22;6416;52.182;7.650;2023-07-31T08:42:54;20.50;81.90
12704;DHT22;6416;52.182;7.650;2023-07-31T08:45:20;20.60;82.30
12704;DHT22;6416;52.182;7.650;2023-07-31T08:47:50;20.60;82.10
12704;DHT22;6416;52.182;7.650;2023-07-31T08:50:18;20.70;82.50
12704;DHT22;6416;52.182;7.650;2023-07-31T08:52:43;20.70;82.50
12704;DHT22;6416;52.182;7.650;2023-07-31T08:55:09;20.70;82.70
12704;DHT22;6416;52.182;7.650;2023-07-31T08:57:37;20.80;83.00
12704;DHT22;6416;52.182;7.650;2023-07-31T09:00:04;20.80;83.20
12704;DHT22;6416;52.182;7.650;2023-07-31T09:02:45;20.80;83.10
12704;DHT22;6416;52.182;7.650;2023-07-31T09:05:11;20.90;83.30
12704;DHT22;6416;52.182;7.650;2023-07-31T09:07:37;20.90;83.00
12704;DHT22;6416;52.182;7.650;2023-07-31T09:10:04;20.90;83.00
12704;DHT22;6416;52.182;7.650;2023-07-31T09:12:30;21.00;83.00
12704;DHT22;6416;52.182;7.650;2023-07-31T09:14:57;21.00;82.90
12704;DHT22;6416;52.182;7.650;2023-07-31T09:17:33;21.00;82.90
12704;DHT22;6416;52.182;7.650;2023-07-31T09:20:18;21.00;83.30
12704;DHT22;6416;52.182;7.650;2023-07-31T09:22:44;21.00;83.40
12704;DHT22;6416;52.182;7.650;2023-07-31T09:25:19;21.10;82.80
12704;DHT22;6416;52.182;7.650;2023-07-31T09:27:58;21.10;83.00
12704;DHT22;6416;52.182;7.650;2023-07-31T09:30:24;21.10;82.90
12704;DHT22;6416;52.182;7.650;2023-07-31T09:32:51;21.00;82.60
12704;DHT22;6416;52.182;7.650;2023-07-31T09:37:51;21.00;82.80
12704;DHT22;6416;52.182;7.650;2023-07-31T09:40:31;21.00;82.60
12704;DHT22;6416;52.182;7.650;2023-07-31T09:42:58;21.10;83.20
12704;DHT22;6416;52.182;7.650;2023-07-31T09:45:25;21.00;82.80
12704;DHT22;6416;52.182;7.650;2023-07-31T09:47:51;21.00;82.80
12704;DHT22;6416;52.182;7.650;2023-07-31T09:50:16;21.10;82.80
12704;DHT22;6416;52.182;7.650;2023-07-31T09:52:42;21.00;82.70
12704;DHT22;6416;52.182;7.650;2023-07-31T09:55:09;21.00;82.70
12704;DHT22;6416;52.182;7.650;2023-07-31T09:57:43;21.00;82.90
12704;DHT22;6416;52.182;7.650;2023-07-31T10:00:10;21.10;83.30
12704;DHT22;6416;52.182;7.650;2023-07-31T10:02:36;21.10;83.00
12704;DHT22;6416;52.182;7.650;2023-07-31T10:05:03;21.10;83.00
12704;DHT22;6416;52.182;7.650;2023-07-31T10:07:30;21.10;83.10
12704;DHT22;6416;52.182;7.650;2023-07-31T10:10:00;21.20;83.40
12704;DHT22;6416;52.182;7.650;2023-07-31T10:12:27;21.20;83.50
12704;DHT22;6416;52.182;7.650;2023-07-31T10:14:53;21.20;83.20
12704;DHT22;6416;52.182;7.650;2023-07-31T10:17:21;21.20;83.10
12704;DHT22;6416;52.182;7.650;2023-07-31T10:19:48;21.30;83.40
12704;DHT22;6416;52.182;7.650;2023-07-31T10:22:14;21.40;84.20
12704;DHT22;6416;52.182;7.650;2023-07-31T10:24:42;21.40;83.40
12704;DHT22;6416;52.182;7.650;2023-07-31T10:27:08;21.40;83.20
12704;DHT22;6416;52.182;7.650;2023-07-31T10:29:36;21.50;83.10
12704;DHT22;6416;52.182;7.650;2023-07-31T10:32:02;21.50;83.10
12704;DHT22;6416;52.182;7.650;2023-07-31T10:34:29;21.50;83.00
12704;DHT22;6416;52.182;7.650;2023-07-31T10:37:26;21.60;82.80
12704;DHT22;6416;52.182;7.650;2023-07-31T10:39:59;21.60;82.70
12704;DHT22;6416;52.182;7.650;2023-07-31T10:42:47;21.60;82.50
12704;DHT22;6416;52.182;7.650;2023-07-31T10:45:13;21.60;82.40
12704;DHT22;6416;52.182;7.650;2023-07-31T10:47:45;21.50;82.20
12704;DHT22;6416;52.182;7.650;2023-07-31T10:52:47;21.60;82.50
12704;DHT22;6416;52.182;7.650;2023-07-31T10:57:51;21.50;83.50
12704;DHT22;6416;52.182;7.650;2023-07-31T11:00:28;21.60;83.40
12704;DHT22;6416;52.182;7.650;2023-07-31T11:03:05;21.60;83.30
12704;DHT22;6416;52.182;7.650;2023-07-31T11:10:49;21.80;82.90
12704;DHT22;6416;52.182;7.650;2023-07-31T11:13:15;21.80;83.00
12704;DHT22;6416;52.182;7.650;2023-07-31T11:15:40;21.90;83.00
12704;DHT22;6416;52.182;7.650;2023-07-31T11:18:06;21.90;83.00
12704;DHT22;6416;52.182;7.650;2023-07-31T11:20:33;22.00;83.10
12704;DHT22;6416;52.182;7.650;2023-07-31T11:23:06;22.00;82.90
12704;DHT22;6416;52.182;7.650;2023-07-31T11:25:32;22.00;82.60
12704;DHT22;6416;52.182;7.650;2023-07-31T11:28:07;22.10;82.30
12704;DHT22;6416;52.182;7.650;2023-07-31T11:30:33;22.10;82.00
12704;DHT22;6416;52.182;7.650;2023-07-31T11:33:01;22.10;82.00
12704;DHT22;6416;52.182;7.650;2023-07-31T11:35:26;22.00;81.80
12704;DHT22;6416;52.182;7.650;2023-07-31T11:37:52;22.00;81.70
12704;DHT22;6416;52.182;7.650;2023-07-31T11:40:18;22.00;81.80
12704;DHT22;6416;52.182;7.650;2023-07-31T11:42:43;22.00;81.90
12704;DHT22;6416;52.182;7.650;2023-07-31T11:45:09;22.00;81.90
12704;DHT22;6416;52.182;7.650;2023-07-31T11:47:36;22.00;82.00
12704;DHT22;6416;52.182;7.650;2023-07-31T11:50:07;22.00;82.20
12704;DHT22;6416;52.182;7.650;2023-07-31T11:52:39;22.10;82.30
12704;DHT22;6416;52.182;7.650;2023-07-31T11:55:07;22.10;82.20
12704;DHT22;6416;52.182;7.650;2023-07-31T11:57:33;22.10;82.30
12704;DHT22;6416;52.182;7.650;2023-07-31T11:59:59;22.10;82.10
12704;DHT22;6416;52.182;7.650;2023-07-31T12:02:26;22.20;82.20
12704;DHT22;6416;52.182;7.650;2023-07-31T12:04:51;22.20;82.10
12704;DHT22;6416;52.182;7.650;2023-07-31T12:07:17;22.30;82.10
12704;DHT22;6416;52.182;7.650;2023-07-31T12:09:55;22.20;82.00
12704;DHT22;6416;52.182;7.650;2023-07-31T12:12:22;22.30;82.00
12704;DHT22;6416;52.182;7.650;2023-07-31T12:14:48;22.30;81.70
12704;DHT22;6416;52.182;7.650;2023-07-31T12:17:14;22.30;81.60
12704;DHT22;6416;52.182;7.650;2023-07-31T12:19:40;22.30;81.60
12704;DHT22;6416;52.182;7.650;2023-07-31T12:22:15;22.30;81.60
12704;DHT22;6416;52.182;7.650;2023-07-31T12:24:42;22.30;81.70
12704;DHT22;6416;52.182;7.650;2023-07-31T12:27:12;22.30;81.70
12704;DHT22;6416;52.182;7.650;2023-07-31T12:29:39;22.30;81.70
12704;DHT22;6416;52.182;7.650;2023-07-31T12:32:18;22.30;81.70
12704;DHT22;6416;52.182;7.650;2023-07-31T12:34:43;22.30;81.60
12704;DHT22;6416;52.182;7.650;2023-07-31T12:37:09;22.30;81.40
12704;DHT22;6416;52.182;7.650;2023-07-31T12:39:34;22.30;81.30
12704;DHT22;6416;52.182;7.650;2023-07-31T12:42:00;22.30;81.20
12704;DHT22;6416;52.182;7.650;2023-07-31T12:44:25;22.30;81.20
12704;DHT22;6416;52.182;7.650;2023-07-31T12:46:51;22.30;81.40
12704;DHT22;6416;52.182;7.650;2023-07-31T12:49:16;22.40;81.70
12704;DHT22;6416;52.182;7.650;2023-07-31T12:51:42;22.40;81.70
12704;DHT22;6416;52.182;7.650;2023-07-31T12:54:07;22.50;81.90
12704;DHT22;6416;52.182;7.650;2023-07-31T12:56:33;22.50;81.80
12704;DHT22;6416;52.182;7.650;2023-07-31T12:58:58;22.50;81.40
12704;DHT22;6416;52.182;7.650;2023-07-31T13:01:23;22.60;81.40
12704;DHT22;6416;52.182;7.650;2023-07-31T13:03:49;22.60;81.20
12704;DHT22;6416;52.182;7.650;2023-07-31T13:06:14;22.60;81.00
12704;DHT22;6416;52.182;7.650;2023-07-31T13:08:40;22.60;81.10
12704;DHT22;6416;52.182;7.650;2023-07-31T13:11:05;22.60;80.90
12704;DHT22;6416;52.182;7.650;2023-07-31T13:13:31;22.70;80.90
12704;DHT22;6416;52.182;7.650;2023-07-31T13:15:56;22.70;80.90
12704;DHT22;6416;52.182;7.650;2023-07-31T13:18:22;22.70;80.90
12704;DHT22;6416;52.182;7.650;2023-07-31T13:20:47;22.80;80.80
12704;DHT22;6416;52.182;7.650;2023-07-31T13:23:13;22.80;80.80
12704;DHT22;6416;52.182;7.650;2023-07-31T13:25:38;22.80;80.50
12704;DHT22;6416;52.182;7.650;2023-07-31T13:28:04;22.80;80.30
12704;DHT22;6416;52.182;7.650;2023-07-31T13:30:29;22.70;80.00
12704;DHT22;6416;52.182;7.650;2023-07-31T13:32:54;22.70;80.00
12704;DHT22;6416;52.182;7.650;2023-07-31T13:35:20;22.70;80.20
12704;DHT22;6416;52.182;7.650;2023-07-31T13:37:45;22.60;80.30
12704;DHT22;6416;52.182;7.650;2023-07-31T13:40:11;22.60;80.40
12704;DHT22;6416;52.182;7.650;2023-07-31T13:42:36;22.50;80.30
12704;DHT22;6416;52.182;7.650;2023-07-31T13:45:02;22.50;80.40
12704;DHT22;6416;52.182;7.650;2023-07-31T13:47:28;22.40;80.50
12704;DHT22;6416;52.182;7.650;2023-07-31T13:49:53;22.40;80.70
12704;DHT22;6416;52.182;7.650;2023-07-31T13:52:19;22.40;81.20
12704;DHT22;6416;52.182;7.650;2023-07-31T13:54:44;22.40;81.60
12704;DHT22;6416;52.182;7.650;2023-07-31T13:57:10;22.50;81.70
12704;DHT22;6416;52.182;7.650;2023-07-31T13:59:35;22.50;81.70
12704;DHT22;6416;52.182;7.650;2023-07-31T14:02:02;22.60;82.10
12704;DHT22;6416;52.182;7.650;2023-07-31T14:04:27;22.60;82.20
12704;DHT22;6416;52.182;7.650;2023-07-31T14:06:53;22.70;82.50
12704;DHT22;6416;52.182;7.650;2023-07-31T14:09:19;22.90;82.50
12704;DHT22;6416;52.182;7.650;2023-07-31T14:11:44;23.00;82.70
12704;DHT22;6416;52.182;7.650;2023-07-31T14:14:10;23.10;82.60
12704;DHT22;6416;52.182;7.650;2023-07-31T14:16:35;23.20;82.20
12704;DHT22;6416;52.182;7.650;2023-07-31T14:19:01;23.30;81.80
12704;DHT22;6416;52.182;7.650;2023-07-31T14:21:26;23.40;81.40
12704;DHT22;6416;52.182;7.650;2023-07-31T14:23:52;23.50;81.10
12704;DHT22;6416;52.182;7.650;2023-07-31T14:26:17;23.50;80.70
12704;DHT22;6416;52.182;7.650;2023-07-31T14:28:43;23.50;80.40
12704;DHT22;6416;52.182;7.650;2023-07-31T14:31:08;23.50;80.10
12704;DHT22;6416;52.182;7.650;2023-07-31T14:33:34;23.60;80.00
12704;DHT22;6416;52.182;7.650;2023-07-31T14:36:00;23.60;79.70
12704;DHT22;6416;52.182;7.650;2023-07-31T14:38:25;23.60;79.70
12704;DHT22;6416;52.182;7.650;2023-07-31T14:40:51;23.70;80.00
12704;DHT22;6416;52.182;7.650;2023-07-31T14:43:17;23.70;80.00
12704;DHT22;6416;52.182;7.650;2023-07-31T14:45:42;23.90;80.00
12704;DHT22;6416;52.182;7.650;2023-07-31T14:48:08;23.90;79.60
12704;DHT22;6416;52.182;7.650;2023-07-31T14:50:33;24.00;79.40
12704;DHT22;6416;52.182;7.650;2023-07-31T14:52:59;24.10;79.20
12704;DHT22;6416;52.182;7.650;2023-07-31T14:55:24;24.10;78.70
12704;DHT22;6416;52.182;7.650;2023-07-31T14:57:50;24.20;78.20
12704;DHT22;6416;52.182;7.650;2023-07-31T15:00:15;24.20;77.90
12704;DHT22;6416;52.182;7.650;2023-07-31T15:02:41;24.20;77.70
12704;DHT22;6416;52.182;7.650;2023-07-31T15:05:07;24.20;77.60
12704;DHT22;6416;52.182;7.650;2023-07-31T15:07:33;24.10;77.20
12704;DHT22;6416;52.182;7.650;2023-07-31T15:09:59;24.20;77.10
12704;DHT22;6416;52.182;7.650;2023-07-31T15:12:25;24.10;76.80
12704;DHT22;6416;52.182;7.650;2023-07-31T15:14:51;24.00;76.60
12704;DHT22;6416;52.182;7.650;2023-07-31T15:17:16;24.00;76.70
12704;DHT22;6416;52.182;7.650;2023-07-31T15:19:42;23.90;76.60
12704;DHT22;6416;52.182;7.650;2023-07-31T15:22:08;23.80;76.60
12704;DHT22;6416;52.182;7.650;2023-07-31T15:24:33;23.70;76.60
12704;DHT22;6416;52.182;7.650;2023-07-31T15:26:59;23.70;76.80
12704;DHT22;6416;52.182;7.650;2023-07-31T15:29:24;23.60;76.80
12704;DHT22;6416;52.182;7.650;2023-07-31T15:31:50;23.50;76.90
12704;DHT22;6416;52.182;7.650;2023-07-31T15:34:15;23.50;77.00
12704;DHT22;6416;52.182;7.650;2023-07-31T15:36:41;23.40;77.10
12704;DHT22;6416;52.182;7.650;2023-07-31T15:39:07;23.40;77.40
12704;DHT22;6416;52.182;7.650;2023-07-31T15:41:32;23.30;77.50
12704;DHT22;6416;52.182;7.650;2023-07-31T15:43:58;23.30;77.50
12704;DHT22;6416;52.182;7.650;2023-07-31T15:46:23;23.30;77.60
12704;DHT22;6416;52.182;7.650;2023-07-31T15:48:49;23.20;77.70
12704;DHT22;6416;52.182;7.650;2023-07-31T15:51:15;23.20;77.80
12704;DHT22;6416;52.182;7.650;2023-07-31T15:53:40;23.20;78.10
12704;DHT22;6416;52.182;7.650;2023-07-31T15:56:06;23.10;78.10
12704;DHT22;6416;52.182;7.650;2023-07-31T15:58:31;23.10;78.30